Time;durP1;ratioP1;P1;durP2;ratioP2;P2;SDS_P1;SDS_P2;PMS_P1;PMS_P2;Temp;Humidity;BMP_temperature;BMP_pressure;BME280_temperature;BME280_humidity;BME280_pressure;Samples;Min_cycle;Max_cycle;Signal;HPM_P1;HPM_P2
2022/09/10 00:00:06;;;;;;;11.68;7.18;;;;;;;;;;1667754;29;21586;-63
2022/09/10 00:00:57;;;;;;;10.77;7.05;;;;;;;;;;1665858;29;22094;-63
2022/09/10 00:01:49;;;;;;;7.72;7.13;;;;;;;;;;1667314;29;22236;-63
2022/09/10 00:02:40;;;;;;;11.20;6.80;;;;;;;;;;1669271;29;21543;-63
2022/09/10 00:03:33;;;;;;;9.40;7.05;;;;;;;;;;1666096;29;21664;-64
2022/09/10 00:04:26;;;;;;;7.75;7.07;;;;;;;;;;1667419;29;21604;-63
2022/09/10 00:05:20;;;;;;;11.18;8.02;;;;;;;;;;1668480;29;21635;-63
2022/09/10 00:06:11;;;;;;;7.93;7.07;;;;;;;;;;1666801;29;21689;-62
2022/09/10 00:07:03;;;;;;;7.88;7.18;;;;;;;;;;1667150;29;23010;-62
2022/09/10 00:07:55;;;;;;;10.77;7.32;;;;;;;;;;1668375;29;21921;-63
2022/09/10 00:08:48;;;;;;;7.47;6.70;;;;;;;;;;1667799;29;21686;-62
2022/09/10 00:09:40;;;;;;;11.52;6.75;;;;;;;;;;1666916;29;22079;-62
2022/09/10 00:10:31;;;;;;;8.55;7.13;;;;;;;;;;1668218;29;21669;-62
2022/09/10 00:11:23;;;;;;;9.38;6.85;;;;;;;;;;1667167;29;21631;-62
2022/09/10 00:12:15;;;;;;;11.70;7.13;;;;;;;;;;1665407;29;21606;-62
2022/09/10 00:13:08;;;;;;;8.05;7.25;;;;;;;;;;1666943;29;21723;-63
2022/09/10 00:14:02;;;;;;;8.30;7.10;;;;;;;;;;1665845;29;21757;-63
2022/09/10 00:14:54;;;;;;;8.57;6.85;;;;;;;;;;1666551;29;21899;-63
2022/09/10 00:15:48;;;;;;;8.10;7.30;;;;;;;;;;1668559;29;21795;-63
2022/09/10 00:16:40;;;;;;;7.90;7.05;;;;;;;;;;1666207;29;22133;-63
2022/09/10 00:17:32;;;;;;;7.97;7.10;;;;;;;;;;1667373;29;21877;-63
2022/09/10 00:18:24;;;;;;;7.65;6.80;;;;;;;;;;1661986;29;21591;-63
2022/09/10 00:19:16;;;;;;;7.95;7.13;;;;;;;;;;1667082;29;22398;-63
2022/09/10 00:20:11;;;;;;;8.20;7.30;;;;;;;;;;1666672;29;22406;-63
2022/09/10 00:21:06;;;;;;;8.50;6.85;;;;;;;;;;1668374;29;21864;-62
2022/09/10 00:21:59;;;;;;;11.50;7.28;;;;;;;;;;1668376;29;21976;-63
2022/09/10 00:22:50;;;;;;;7.43;6.63;;;;;;;;;;1667063;29;22660;-62
2022/09/10 00:23:44;;;;;;;14.02;6.95;;;;;;;;;;1666426;29;22198;-63
2022/09/10 00:24:35;;;;;;;7.03;6.47;;;;;;;;;;1668059;29;22489;-63
2022/09/10 00:25:31;;;;;;;7.70;6.97;;;;;;;;;;1666749;29;22108;-62
2022/09/10 00:26:26;;;;;;;7.68;6.97;;;;;;;;;;1666879;29;22771;-63
2022/09/10 00:27:18;;;;;;;11.63;7.25;;;;;;;;;;1668527;29;21595;-62
2022/09/10 00:28:09;;;;;;;8.23;6.70;;;;;;;;;;1656627;29;22022;-62
2022/09/10 00:29:02;;;;;;;8.48;7.70;;;;;;;;;;1663243;29;21618;-62
2022/09/10 00:29:54;;;;;;;11.10;6.32;;;;;;;;;;1662450;29;21653;-62
2022/09/10 00:30:48;;;;;;;7.65;6.80;;;;;;;;;;1656268;29;21586;-62
2022/09/10 00:31:40;;;;;;;9.90;6.78;;;;;;;;;;1661322;29;21563;-62
2022/09/10 00:32:33;;;;;;;11.45;7.07;;;;;;;;;;1665641;29;22658;-62
2022/09/10 00:33:24;;;;;;;8.73;6.38;;;;;;;;;;1666245;29;22022;-62
2022/09/10 00:34:17;;;;;;;7.07;6.47;;;;;;;;;;1668679;29;21781;-63
2022/09/10 00:35:09;;;;;;;6.90;6.20;;;;;;;;;;1668399;29;21829;-62
2022/09/10 00:36:02;;;;;;;7.55;6.90;;;;;;;;;;1662704;29;21604;-62
2022/09/10 00:36:55;;;;;;;6.95;6.32;;;;;;;;;;1667002;29;22304;-61
2022/09/10 00:37:46;;;;;;;8.95;6.78;;;;;;;;;;1667104;29;21876;-62
2022/09/10 00:38:37;;;;;;;9.38;6.68;;;;;;;;;;1666431;29;22367;-62
2022/09/10 00:39:29;;;;;;;8.90;6.38;;;;;;;;;;1667274;29;21818;-62
2022/09/10 00:40:21;;;;;;;10.07;6.05;;;;;;;;;;1668046;29;21601;-62
2022/09/10 00:41:14;;;;;;;7.30;6.60;;;;;;;;;;1667745;29;22244;-62
2022/09/10 00:42:08;;;;;;;10.55;7.05;;;;;;;;;;1666462;29;22370;-62
2022/09/10 00:43:00;;;;;;;9.48;7.15;;;;;;;;;;1667011;29;21619;-62
2022/09/10 00:43:54;;;;;;;7.38;6.72;;;;;;;;;;1665825;29;21781;-62
2022/09/10 00:45:03;;;;;;;7.07;6.38;;;;;;;;;;1667165;29;21632;-62
2022/09/10 00:45:55;;;;;;;7.50;6.63;;;;;;;;;;1662393;29;22599;-62
2022/09/10 00:46:51;;;;;;;8.10;6.72;;;;;;;;;;1666942;29;21955;-62
2022/09/10 00:47:45;;;;;;;7.75;6.55;;;;;;;;;;1666571;29;21640;-63
2022/09/10 00:48:38;;;;;;;8.57;7.00;;;;;;;;;;1667716;29;22286;-63
2022/09/10 00:49:35;;;;;;;9.25;6.95;;;;;;;;;;1666753;29;21942;-62
2022/09/10 00:50:34;;;;;;;9.00;7.28;;;;;;;;;;1667186;29;21604;-63
2022/09/10 00:51:29;;;;;;;8.25;6.78;;;;;;;;;;1668238;29;21794;-62
2022/09/10 00:52:22;;;;;;;7.22;6.53;;;;;;;;;;1668346;29;21697;-63
2022/09/10 00:53:17;;;;;;;7.53;6.30;;;;;;;;;;1665494;29;22438;-62
2022/09/10 00:54:11;;;;;;;7.68;6.97;;;;;;;;;;1667540;29;22641;-63
2022/09/10 00:55:04;;;;;;;7.10;6.43;;;;;;;;;;1669685;29;22260;-63
2022/09/10 00:55:59;;;;;;;8.60;7.00;;;;;;;;;;1665615;29;22223;-63
2022/09/10 00:56:53;;;;;;;8.18;6.65;;;;;;;;;;1668298;29;21764;-63
2022/09/10 00:57:47;;;;;;;9.05;6.57;;;;;;;;;;1667925;29;22439;-63
2022/09/10 00:58:38;;;;;;;9.63;6.43;;;;;;;;;;1665400;29;21934;-63
2022/09/10 00:59:31;;;;;;;8.23;7.22;;;;;;;;;;1668053;29;21713;-63
2022/09/10 01:00:22;;;;;;;7.15;6.35;;;;;;;;;;1668375;29;21676;-63
2022/09/10 01:01:14;;;;;;;8.50;6.72;;;;;;;;;;1666627;29;21831;-63
2022/09/10 01:02:07;;;;;;;7.40;6.68;;;;;;;;;;1668337;29;21989;-63
2022/09/10 01:02:59;;;;;;;7.85;6.90;;;;;;;;;;1667577;29;22402;-63
2022/09/10 01:03:52;;;;;;;9.70;6.70;;;;;;;;;;1665748;29;21791;-62
2022/09/10 01:04:44;;;;;;;6.72;6.13;;;;;;;;;;1668292;29;21605;-63
2022/09/10 01:05:39;;;;;;;9.50;6.95;;;;;;;;;;1667738;29;21672;-63
2022/09/10 01:06:30;;;;;;;8.13;6.90;;;;;;;;;;1665647;29;21608;-63
2022/09/10 01:07:24;;;;;;;8.85;6.40;;;;;;;;;;1667996;29;21664;-63
2022/09/10 01:08:17;;;;;;;7.63;6.22;;;;;;;;;;1668090;29;21617;-63
2022/09/10 01:09:10;;;;;;;8.55;6.38;;;;;;;;;;1666630;29;22755;-63
2022/09/10 01:10:06;;;;;;;12.63;6.97;;;;;;;;;;1662645;29;21615;-63
2022/09/10 01:11:12;;;;;;;6.57;6.07;;;;;;;;;;1666046;29;21658;-62
2022/09/10 01:12:19;;;;;;;6.60;6.00;;;;;;;;;;1667538;29;21661;-62
2022/09/10 01:13:25;;;;;;;7.70;6.70;;;;;;;;;;1664863;29;22782;-63
2022/09/10 01:14:43;;;;;;;7.80;6.75;;;;;;;;;;1665923;29;21736;-63
2022/09/10 01:15:42;;;;;;;9.40;6.95;;;;;;;;;;1662546;29;21623;-63
2022/09/10 01:16:42;;;;;;;8.55;5.97;;;;;;;;;;1664901;29;21600;-63
2022/09/10 01:17:45;;;;;;;7.20;6.60;;;;;;;;;;1666867;29;21602;-63
2022/09/10 01:18:50;;;;;;;6.78;6.18;;;;;;;;;;1669301;29;22288;-63
2022/09/10 01:20:16;;;;;;;9.10;6.00;;;;;;;;;;1665036;29;22035;-62
2022/09/10 01:21:21;;;;;;;10.02;5.80;;;;;;;;;;1662725;29;22891;-63
2022/09/10 01:22:24;;;;;;;7.65;6.22;;;;;;;;;;1662826;29;21604;-63
2022/09/10 01:24:29;;;;;;;10.18;6.22;;;;;;;;;;1666211;29;21562;-63
2022/09/10 01:25:34;;;;;;;8.70;6.07;;;;;;;;;;1664800;29;21964;-63
2022/09/10 01:26:51;;;;;;;11.02;6.38;;;;;;;;;;1666811;29;21573;-63
2022/09/10 01:27:47;;;;;;;9.30;6.72;;;;;;;;;;1662754;29;21754;-63
2022/09/10 01:28:47;;;;;;;7.40;6.30;;;;;;;;;;1662737;29;21668;-63
2022/09/10 01:29:48;;;;;;;7.25;6.25;;;;;;;;;;1667558;29;21622;-63
2022/09/10 01:30:45;;;;;;;7.07;6.45;;;;;;;;;;1668819;29;22918;-63
2022/09/10 01:31:44;;;;;;;9.45;6.38;;;;;;;;;;1668283;29;22171;-63
2022/09/10 01:32:49;;;;;;;10.23;6.97;;;;;;;;;;1668189;29;21726;-63
2022/09/10 01:33:47;;;;;;;11.38;6.88;;;;;;;;;;1667160;29;21594;-63
2022/09/10 01:34:45;;;;;;;8.23;6.40;;;;;;;;;;1667358;29;22487;-64
2022/09/10 01:35:41;;;;;;;7.40;6.50;;;;;;;;;;1668596;29;21635;-63
2022/09/10 01:36:39;;;;;;;7.47;6.70;;;;;;;;;;1668122;29;21612;-63
2022/09/10 01:37:32;;;;;;;10.18;6.18;;;;;;;;;;1667408;29;21981;-63
2022/09/10 01:38:30;;;;;;;9.75;6.50;;;;;;;;;;1668655;29;21731;-63
2022/09/10 01:39:23;;;;;;;8.73;6.18;;;;;;;;;;1668016;29;21864;-63
2022/09/10 01:40:17;;;;;;;7.72;7.00;;;;;;;;;;1667337;29;22105;-63
2022/09/10 01:41:09;;;;;;;6.15;5.68;;;;;;;;;;1669975;29;22107;-62
2022/09/10 01:42:01;;;;;;;7.28;6.53;;;;;;;;;;1668746;29;21758;-63
2022/09/10 01:42:54;;;;;;;7.22;6.63;;;;;;;;;;1665646;29;21610;-63
2022/09/10 01:43:45;;;;;;;7.03;6.40;;;;;;;;;;1667992;29;21654;-63
2022/09/10 01:44:44;;;;;;;12.50;6.63;;;;;;;;;;1667715;29;21595;-63
2022/09/10 01:45:47;;;;;;;7.78;6.38;;;;;;;;;;1667066;29;21690;-63
2022/09/10 01:46:48;;;;;;;7.70;6.00;;;;;;;;;;1668937;29;22615;-63
2022/09/10 01:48:18;;;;;;;6.40;5.78;;;;;;;;;;1667237;29;21745;-64
2022/09/10 01:49:25;;;;;;;6.65;6.05;;;;;;;;;;1662978;29;22401;-63
2022/09/10 01:50:24;;;;;;;6.40;5.85;;;;;;;;;;1665242;29;22288;-63
2022/09/10 01:51:27;;;;;;;7.15;6.35;;;;;;;;;;1668929;29;21812;-63
2022/09/10 01:52:29;;;;;;;10.63;6.40;;;;;;;;;;1669110;29;21627;-64
2022/09/10 01:53:42;;;;;;;8.15;6.60;;;;;;;;;;1665724;29;21676;-64
2022/09/10 01:54:45;;;;;;;8.10;6.13;;;;;;;;;;1668343;29;22561;-63
2022/09/10 01:55:56;;;;;;;6.75;6.05;;;;;;;;;;1666544;29;21817;-63
2022/09/10 01:56:51;;;;;;;;;;;;;;;;;;1667731;29;21737;-64
2022/09/10 01:57:55;;;;;;;9.55;5.80;;;;;;;;;;1669796;29;21483;-63
2022/09/10 01:58:47;;;;;;;8.73;5.82;;;;;;;;;;1668034;29;21615;-64
2022/09/10 01:59:49;;;;;;;8.43;6.00;;;;;;;;;;1668707;29;22399;-63
2022/09/10 02:00:48;;;;;;;7.00;6.35;;;;;;;;;;1666927;29;21669;-64
2022/09/10 02:01:45;;;;;;;7.18;6.30;;;;;;;;;;1665957;29;21789;-63
2022/09/10 02:02:40;;;;;;;6.00;5.50;;;;;;;;;;1668266;29;21600;-63
2022/09/10 02:03:34;;;;;;;8.60;6.85;;;;;;;;;;1667060;29;21967;-64
2022/09/10 02:04:27;;;;;;;9.65;5.78;;;;;;;;;;1667962;29;22268;-64
2022/09/10 02:05:25;;;;;;;6.72;6.10;;;;;;;;;;1668977;29;22052;-61
2022/09/10 02:06:21;;;;;;;6.30;5.65;;;;;;;;;;1668505;29;21798;-63
2022/09/10 02:07:15;;;;;;;6.40;5.90;;;;;;;;;;1668146;29;21679;-64
2022/09/10 02:08:11;;;;;;;16.13;6.28;;;;;;;;;;1668829;29;21767;-64
2022/09/10 02:09:04;;;;;;;6.85;5.93;;;;;;;;;;1667119;29;22278;-63
2022/09/10 02:09:56;;;;;;;9.25;6.38;;;;;;;;;;1668843;29;21668;-63
2022/09/10 02:10:52;;;;;;;6.25;5.75;;;;;;;;;;1668926;29;22060;-63
2022/09/10 02:11:46;;;;;;;6.53;5.63;;;;;;;;;;1667076;29;21621;-63
2022/09/10 02:12:38;;;;;;;10.52;6.30;;;;;;;;;;1663636;29;21615;-63
2022/09/10 02:13:33;;;;;;;6.18;5.57;;;;;;;;;;1665428;29;22004;-62
2022/09/10 02:14:25;;;;;;;7.43;5.95;;;;;;;;;;1670188;29;21729;-63
2022/09/10 02:15:18;;;;;;;8.50;6.28;;;;;;;;;;1668567;29;22398;-62
2022/09/10 02:16:16;;;;;;;6.05;5.45;;;;;;;;;;1668857;29;21662;-63
2022/09/10 02:17:07;;;;;;;7.53;5.93;;;;;;;;;;1666351;29;21765;-63
2022/09/10 02:18:00;;;;;;;7.05;5.47;;;;;;;;;;1669114;29;22245;-62
2022/09/10 02:18:52;;;;;;;8.40;5.85;;;;;;;;;;1669053;29;22065;-62
2022/09/10 02:19:46;;;;;;;6.18;5.75;;;;;;;;;;1667228;29;21605;-63
2022/09/10 02:20:39;;;;;;;6.63;6.07;;;;;;;;;;1668309;29;21649;-63
2022/09/10 02:21:31;;;;;;;8.75;5.88;;;;;;;;;;1668719;29;22538;-62
2022/09/10 02:22:23;;;;;;;6.68;6.00;;;;;;;;;;1668884;29;21573;-62
2022/09/10 02:23:18;;;;;;;8.75;5.85;;;;;;;;;;1665980;29;22002;-63
2022/09/10 02:24:13;;;;;;;6.57;5.97;;;;;;;;;;1667948;29;21624;-62
2022/09/10 02:25:06;;;;;;;11.43;6.00;;;;;;;;;;1669017;29;21750;-62
2022/09/10 02:25:57;;;;;;;9.27;5.90;;;;;;;;;;1666440;29;22592;-62
2022/09/10 02:26:50;;;;;;;6.55;5.90;;;;;;;;;;1669095;29;22330;-63
2022/09/10 02:27:42;;;;;;;5.80;5.30;;;;;;;;;;1668671;29;22117;-62
2022/09/10 02:28:36;;;;;;;6.45;5.85;;;;;;;;;;1666906;29;22736;-62
2022/09/10 02:29:28;;;;;;;7.32;5.82;;;;;;;;;;1670334;29;21689;-62
2022/09/10 02:30:22;;;;;;;6.00;5.50;;;;;;;;;;1668989;29;21641;-63
2022/09/10 02:31:13;;;;;;;9.02;5.60;;;;;;;;;;1666329;29;21668;-63
2022/09/10 02:32:07;;;;;;;6.80;6.15;;;;;;;;;;1668779;29;22105;-62
2022/09/10 02:32:58;;;;;;;5.65;5.18;;;;;;;;;;1667579;29;21777;-63
2022/09/10 02:33:50;;;;;;;6.53;5.72;;;;;;;;;;1666924;29;22538;-62
2022/09/10 02:34:41;;;;;;;6.60;6.00;;;;;;;;;;1665710;29;22032;-62
2022/09/10 02:35:34;;;;;;;6.03;5.53;;;;;;;;;;1668559;29;21793;-62
2022/09/10 02:36:25;;;;;;;6.60;5.55;;;;;;;;;;1667619;29;21637;-62
2022/09/10 02:37:18;;;;;;;9.00;5.85;;;;;;;;;;1668488;29;22794;-62
2022/09/10 02:38:10;;;;;;;7.00;5.10;;;;;;;;;;1668096;29;21685;-62
2022/09/10 02:39:04;;;;;;;6.18;5.60;;;;;;;;;;1668257;29;21670;-63
2022/09/10 02:39:55;;;;;;;12.20;6.00;;;;;;;;;;1668539;29;22821;-63
2022/09/10 02:40:48;;;;;;;6.20;5.68;;;;;;;;;;1668666;29;22365;-64
2022/09/10 02:41:40;;;;;;;8.60;5.60;;;;;;;;;;1667119;29;22060;-63
2022/09/10 02:42:32;;;;;;;5.35;4.85;;;;;;;;;;1667840;29;21665;-63
2022/09/10 02:43:24;;;;;;;7.05;6.15;;;;;;;;;;1667306;29;21583;-63
2022/09/10 02:44:18;;;;;;;9.00;5.70;;;;;;;;;;1665267;29;22448;-61
2022/09/10 02:45:09;;;;;;;5.63;5.13;;;;;;;;;;1667577;29;21741;-63
2022/09/10 02:46:06;;;;;;;11.23;5.95;;;;;;;;;;1668859;29;21641;-63
2022/09/10 02:46:57;;;;;;;10.38;5.95;;;;;;;;;;1667446;29;21782;-63
2022/09/10 02:47:49;;;;;;;8.20;5.18;;;;;;;;;;1667798;29;21602;-63
2022/09/10 02:48:41;;;;;;;5.88;5.38;;;;;;;;;;1668703;29;21956;-63
2022/09/10 02:49:33;;;;;;;8.68;4.95;;;;;;;;;;1667106;29;21671;-62
2022/09/10 02:50:25;;;;;;;6.30;5.32;;;;;;;;;;1667662;29;21718;-63
2022/09/10 02:51:18;;;;;;;8.48;5.68;;;;;;;;;;1668534;29;21618;-62
2022/09/10 02:52:09;;;;;;;10.45;5.35;;;;;;;;;;1668571;29;21620;-62
2022/09/10 02:53:01;;;;;;;5.60;5.10;;;;;;;;;;1666639;29;23860;-62
2022/09/10 02:53:54;;;;;;;8.68;5.43;;;;;;;;;;1667803;29;22548;-62
2022/09/10 02:54:47;;;;;;;6.20;5.68;;;;;;;;;;1669049;29;21728;-62
2022/09/10 02:55:39;;;;;;;7.85;5.38;;;;;;;;;;1666910;29;21843;-62
2022/09/10 02:56:31;;;;;;;6.03;5.13;;;;;;;;;;1661375;29;21577;-62
2022/09/10 02:57:23;;;;;;;6.68;5.60;;;;;;;;;;1661616;29;22051;-62
2022/09/10 02:58:16;;;;;;;4.82;4.50;;;;;;;;;;1664822;29;21681;-62
2022/09/10 02:59:07;;;;;;;10.10;5.25;;;;;;;;;;1667836;29;21707;-63
2022/09/10 03:00:01;;;;;;;6.53;5.40;;;;;;;;;;1668707;29;22181;-63
2022/09/10 03:00:53;;;;;;;5.50;4.88;;;;;;;;;;1667049;29;21789;-63
2022/09/10 03:01:47;;;;;;;6.43;5.72;;;;;;;;;;1667176;29;21647;-63
2022/09/10 03:02:39;;;;;;;9.77;5.20;;;;;;;;;;1668229;29;21612;-63
2022/09/10 03:03:32;;;;;;;5.97;5.35;;;;;;;;;;1665685;29;21896;-63
2022/09/10 03:04:23;;;;;;;11.18;5.68;;;;;;;;;;1665522;29;22015;-63
2022/09/10 03:05:15;;;;;;;5.80;5.30;;;;;;;;;;1662441;29;22351;-63
2022/09/10 03:06:07;;;;;;;6.05;5.32;;;;;;;;;;1667416;29;21769;-63
2022/09/10 03:06:59;;;;;;;5.80;5.30;;;;;;;;;;1659925;29;21707;-63
2022/09/10 03:07:50;;;;;;;5.47;5.07;;;;;;;;;;1661732;29;21609;-63
2022/09/10 03:08:42;;;;;;;7.53;5.32;;;;;;;;;;1665265;29;22384;-63
2022/09/10 03:09:34;;;;;;;5.60;5.20;;;;;;;;;;1665989;29;21762;-62
2022/09/10 03:10:27;;;;;;;5.43;4.93;;;;;;;;;;1668795;29;22506;-62
2022/09/10 03:11:21;;;;;;;10.07;5.25;;;;;;;;;;1668629;29;21652;-62
2022/09/10 03:12:15;;;;;;;6.82;4.85;;;;;;;;;;1666213;29;21634;-63
2022/09/10 03:13:06;;;;;;;6.30;5.03;;;;;;;;;;1667144;29;21807;-62
2022/09/10 03:13:58;;;;;;;9.65;4.93;;;;;;;;;;1667516;29;22241;-63
2022/09/10 03:14:50;;;;;;;5.50;5.00;;;;;;;;;;1666272;29;21658;-63
2022/09/10 03:15:44;;;;;;;5.03;4.53;;;;;;;;;;1668250;29;21734;-62
2022/09/10 03:16:35;;;;;;;5.43;4.78;;;;;;;;;;1668236;29;22245;-63
2022/09/10 03:17:28;;;;;;;7.60;5.53;;;;;;;;;;1665878;29;22062;-63
2022/09/10 03:18:21;;;;;;;5.00;4.60;;;;;;;;;;1668540;29;21764;-63
2022/09/10 03:19:14;;;;;;;7.88;4.65;;;;;;;;;;1669645;29;22264;-63
2022/09/10 03:20:07;;;;;;;5.43;4.95;;;;;;;;;;1666295;29;21781;-63
2022/09/10 03:21:10;;;;;;;8.00;5.20;;;;;;;;;;1668674;29;22393;-63
2022/09/10 03:22:01;;;;;;;7.97;5.10;;;;;;;;;;1668548;29;21617;-63
2022/09/10 03:22:53;;;;;;;6.55;4.65;;;;;;;;;;1666331;29;22709;-63
2022/09/10 03:23:46;;;;;;;7.05;4.88;;;;;;;;;;1668247;29;21705;-63
2022/09/10 03:24:38;;;;;;;6.10;4.80;;;;;;;;;;1668327;29;21665;-63
2022/09/10 03:25:29;;;;;;;6.28;4.80;;;;;;;;;;1667374;29;21845;-63
2022/09/10 03:26:24;;;;;;;5.53;5.03;;;;;;;;;;1667485;29;21849;-63
2022/09/10 03:27:15;;;;;;;5.32;4.85;;;;;;;;;;1668634;29;21639;-63
2022/09/10 03:28:08;;;;;;;9.70;4.90;;;;;;;;;;1662837;29;22574;-63
2022/09/10 03:28:59;;;;;;;5.80;5.03;;;;;;;;;;1666889;29;21761;-63
2022/09/10 03:29:52;;;;;;;5.30;4.90;;;;;;;;;;1668727;29;21629;-63
2022/09/10 03:30:44;;;;;;;5.25;4.82;;;;;;;;;;1664488;29;21783;-63
2022/09/10 03:31:36;;;;;;;7.97;4.47;;;;;;;;;;1666700;29;22371;-63
2022/09/10 03:32:28;;;;;;;5.25;4.75;;;;;;;;;;1668438;29;22611;-63
2022/09/10 03:33:20;;;;;;;5.47;4.30;;;;;;;;;;1666129;29;22069;-62
2022/09/10 03:34:12;;;;;;;5.80;4.68;;;;;;;;;;1667049;29;22409;-63
2022/09/10 03:35:05;;;;;;;7.18;4.90;;;;;;;;;;1662041;29;22630;-63
2022/09/10 03:35:56;;;;;;;4.97;4.57;;;;;;;;;;1666915;29;21663;-63
2022/09/10 03:36:50;;;;;;;5.72;5.13;;;;;;;;;;1667380;29;21593;-63
2022/09/10 03:37:41;;;;;;;5.57;5.10;;;;;;;;;;1668221;29;22253;-63
2022/09/10 03:38:34;;;;;;;9.77;5.15;;;;;;;;;;1666973;29;21998;-63
2022/09/10 03:39:25;;;;;;;4.80;4.50;;;;;;;;;;1667096;29;21626;-63
2022/09/10 03:40:18;;;;;;;4.90;4.53;;;;;;;;;;1669394;29;22764;-63
2022/09/10 03:41:10;;;;;;;5.45;4.65;;;;;;;;;;1668006;29;21684;-62
2022/09/10 03:42:04;;;;;;;5.50;5.00;;;;;;;;;;1666528;29;21877;-63
2022/09/10 03:42:55;;;;;;;5.30;4.85;;;;;;;;;;1667461;29;21857;-62
2022/09/10 03:43:48;;;;;;;5.85;5.35;;;;;;;;;;1667509;29;21612;-62
2022/09/10 03:44:39;;;;;;;4.65;4.25;;;;;;;;;;1665453;29;21638;-62
2022/09/10 03:45:31;;;;;;;5.63;5.10;;;;;;;;;;1666872;29;21973;-64
2022/09/10 03:46:24;;;;;;;5.90;4.97;;;;;;;;;;1668489;29;21969;-63
2022/09/10 03:47:17;;;;;;;8.02;5.15;;;;;;;;;;1667363;29;22457;-63
2022/09/10 03:48:08;;;;;;;5.40;4.88;;;;;;;;;;1669788;29;21799;-63
2022/09/10 03:49:01;;;;;;;4.97;4.50;;;;;;;;;;1668604;29;21866;-63
2022/09/10 03:49:53;;;;;;;7.07;5.35;;;;;;;;;;1666851;29;21827;-63
2022/09/10 03:50:46;;;;;;;6.25;5.72;;;;;;;;;;1668379;29;21771;-63
2022/09/10 03:51:38;;;;;;;5.00;4.60;;;;;;;;;;1668061;29;21621;-64
2022/09/10 03:52:29;;;;;;;7.80;5.60;;;;;;;;;;1668427;29;21705;-63
2022/09/10 03:53:21;;;;;;;5.88;5.25;;;;;;;;;;1667472;29;21629;-63
2022/09/10 03:54:13;;;;;;;5.88;4.80;;;;;;;;;;1668546;29;22243;-63
2022/09/10 03:55:06;;;;;;;6.47;4.63;;;;;;;;;;1668368;29;21603;-63
2022/09/10 03:55:58;;;;;;;5.90;5.07;;;;;;;;;;1665944;29;22006;-61
2022/09/10 03:56:50;;;;;;;5.72;5.20;;;;;;;;;;1668635;29;21600;-63
2022/09/10 03:57:42;;;;;;;5.18;4.75;;;;;;;;;;1668150;29;21652;-63
2022/09/10 03:58:34;;;;;;;6.18;4.82;;;;;;;;;;1664080;29;21597;-63
2022/09/10 03:59:25;;;;;;;6.07;5.50;;;;;;;;;;1668473;29;21644;-63
2022/09/10 04:00:18;;;;;;;5.22;4.82;;;;;;;;;;1668481;29;21638;-63
2022/09/10 04:01:09;;;;;;;4.75;4.35;;;;;;;;;;1666029;29;21809;-63
2022/09/10 04:02:03;;;;;;;7.65;5.18;;;;;;;;;;1668236;29;21597;-63
2022/09/10 04:02:54;;;;;;;4.90;4.50;;;;;;;;;;1668019;29;21934;-63
2022/09/10 04:03:46;;;;;;;4.60;4.20;;;;;;;;;;1666017;29;21618;-63
2022/09/10 04:04:37;;;;;;;5.90;5.30;;;;;;;;;;1665085;29;21682;-63
2022/09/10 04:05:31;;;;;;;5.40;4.90;;;;;;;;;;1668386;29;21821;-63
2022/09/10 04:06:22;;;;;;;5.65;5.07;;;;;;;;;;1666718;29;21853;-63
2022/09/10 04:07:14;;;;;;;5.70;5.30;;;;;;;;;;1667760;29;21596;-62
2022/09/10 04:08:06;;;;;;;5.50;5.00;;;;;;;;;;1668367;29;21704;-63
2022/09/10 04:09:00;;;;;;;5.47;5.00;;;;;;;;;;1668106;29;21947;-63
2022/09/10 04:09:51;;;;;;;6.05;5.43;;;;;;;;;;1667378;29;21928;-63
2022/09/10 04:10:43;;;;;;;5.93;5.30;;;;;;;;;;1668279;29;22608;-63
2022/09/10 04:11:35;;;;;;;4.85;4.45;;;;;;;;;;1668018;29;21586;-63
2022/09/10 04:12:27;;;;;;;10.10;4.78;;;;;;;;;;1667289;29;22327;-63
2022/09/10 04:13:19;;;;;;;7.47;5.07;;;;;;;;;;1666974;29;21666;-63
2022/09/10 04:14:10;;;;;;;5.47;4.95;;;;;;;;;;1666296;29;21621;-63
2022/09/10 04:15:03;;;;;;;5.32;4.82;;;;;;;;;;1667191;29;22442;-63
2022/09/10 04:15:54;;;;;;;5.43;4.93;;;;;;;;;;1668519;29;21751;-63
2022/09/10 04:16:47;;;;;;;7.50;5.32;;;;;;;;;;1663872;29;22468;-63
2022/09/10 04:17:39;;;;;;;7.68;4.75;;;;;;;;;;1657558;29;22905;-63
2022/09/10 04:18:33;;;;;;;5.30;4.90;;;;;;;;;;1661037;29;21661;-63
2022/09/10 04:19:26;;;;;;;5.32;4.93;;;;;;;;;;1664689;29;22003;-63
2022/09/10 04:20:18;;;;;;;6.50;5.50;;;;;;;;;;1667293;29;22682;-63
2022/09/10 04:21:10;;;;;;;5.05;4.68;;;;;;;;;;1668214;29;22326;-63
2022/09/10 04:22:02;;;;;;;5.60;5.07;;;;;;;;;;1669428;29;21823;-63
2022/09/10 04:22:55;;;;;;;4.85;4.45;;;;;;;;;;1666081;29;21603;-63
2022/09/10 04:23:47;;;;;;;5.45;5.00;;;;;;;;;;1667191;29;22206;-63
2022/09/10 04:24:39;;;;;;;8.43;4.75;;;;;;;;;;1669020;29;21586;-63
2022/09/10 04:25:30;;;;;;;5.55;5.05;;;;;;;;;;1667515;29;21871;-63
2022/09/10 04:26:23;;;;;;;5.53;5.13;;;;;;;;;;1667233;29;22485;-62
2022/09/10 04:27:15;;;;;;;5.25;4.85;;;;;;;;;;1668397;29;22435;-63
2022/09/10 04:28:08;;;;;;;5.60;5.10;;;;;;;;;;1662856;29;21585;-63
2022/09/10 04:28:59;;;;;;;5.93;5.30;;;;;;;;;;1667241;29;21590;-62
2022/09/10 04:29:50;;;;;;;5.47;4.82;;;;;;;;;;1668079;29;21916;-63
2022/09/10 04:30:44;;;;;;;8.05;4.57;;;;;;;;;;1666546;29;21578;-63
2022/09/10 04:31:35;;;;;;;5.10;4.57;;;;;;;;;;1668942;29;22330;-62
2022/09/10 04:32:27;;;;;;;5.78;4.80;;;;;;;;;;1669610;29;22079;-63
2022/09/10 04:33:20;;;;;;;5.47;4.97;;;;;;;;;;1666512;29;21603;-62
2022/09/10 04:34:12;;;;;;;5.53;5.03;;;;;;;;;;1667127;29;22490;-63
2022/09/10 04:35:05;;;;;;;5.75;4.47;;;;;;;;;;1668160;29;21584;-63
2022/09/10 04:35:59;;;;;;;5.30;4.80;;;;;;;;;;1667125;29;22642;-63
2022/09/10 04:36:52;;;;;;;5.40;5.00;;;;;;;;;;1668108;29;21705;-63
2022/09/10 04:37:44;;;;;;;5.95;5.15;;;;;;;;;;1662575;29;21899;-63
2022/09/10 04:38:39;;;;;;;6.63;5.30;;;;;;;;;;1666175;29;22159;-62
2022/09/10 04:39:31;;;;;;;5.32;4.88;;;;;;;;;;1667021;29;21638;-62
2022/09/10 04:40:22;;;;;;;5.45;4.95;;;;;;;;;;1669384;29;22011;-63
2022/09/10 04:41:17;;;;;;;7.82;4.90;;;;;;;;;;1667794;29;22497;-63
2022/09/10 04:42:08;;;;;;;5.00;4.53;;;;;;;;;;1667088;29;21719;-63
2022/09/10 04:43:01;;;;;;;5.38;4.88;;;;;;;;;;1668374;29;22128;-63
2022/09/10 04:43:52;;;;;;;6.10;5.50;;;;;;;;;;1667722;29;21729;-63
2022/09/10 04:44:44;;;;;;;4.80;4.40;;;;;;;;;;1668266;29;21826;-63
2022/09/10 04:45:35;;;;;;;7.90;4.50;;;;;;;;;;1669089;29;21626;-63
2022/09/10 04:46:27;;;;;;;7.18;5.25;;;;;;;;;;1669357;29;22028;-63
2022/09/10 04:47:19;;;;;;;4.93;4.53;;;;;;;;;;1667243;29;22315;-62
2022/09/10 04:48:11;;;;;;;6.78;4.70;;;;;;;;;;1669443;29;21766;-63
2022/09/10 04:49:04;;;;;;;6.72;4.57;;;;;;;;;;1669662;29;21650;-63
2022/09/10 04:49:57;;;;;;;5.30;4.85;;;;;;;;;;1667080;29;22261;-63
2022/09/10 04:50:49;;;;;;;7.55;5.07;;;;;;;;;;1669417;29;21605;-63
2022/09/10 04:51:41;;;;;;;5.60;5.10;;;;;;;;;;1668995;29;21807;-63
2022/09/10 04:52:32;;;;;;;5.20;4.75;;;;;;;;;;1668372;29;21604;-61
2022/09/10 04:53:24;;;;;;;8.68;4.90;;;;;;;;;;1666696;29;21789;-65
2022/09/10 04:54:16;;;;;;;5.63;4.78;;;;;;;;;;1669210;29;21685;-63
2022/09/10 04:55:09;;;;;;;5.47;4.95;;;;;;;;;;1669164;29;21708;-62
2022/09/10 04:56:00;;;;;;;5.38;4.90;;;;;;;;;;1668038;29;22395;-62
2022/09/10 04:56:52;;;;;;;7.28;4.20;;;;;;;;;;1669458;29;21590;-62
2022/09/10 04:57:44;;;;;;;5.80;4.80;;;;;;;;;;1669218;29;22508;-62
2022/09/10 04:58:36;;;;;;;5.32;4.85;;;;;;;;;;1666614;29;21641;-62
2022/09/10 04:59:28;;;;;;;6.03;4.57;;;;;;;;;;1669427;29;21586;-62
2022/09/10 05:00:21;;;;;;;4.82;4.40;;;;;;;;;;1669100;29;21600;-62
2022/09/10 05:01:12;;;;;;;5.05;4.43;;;;;;;;;;1667287;29;21810;-62
2022/09/10 05:02:05;;;;;;;5.47;4.30;;;;;;;;;;1669286;29;21833;-62
2022/09/10 05:02:56;;;;;;;4.75;4.35;;;;;;;;;;1667928;29;21684;-63
2022/09/10 05:03:48;;;;;;;6.25;4.65;;;;;;;;;;1666945;29;21915;-63
2022/09/10 05:04:41;;;;;;;6.13;4.68;;;;;;;;;;1668792;29;22342;-63
2022/09/10 05:05:34;;;;;;;10.77;4.45;;;;;;;;;;1668867;29;22475;-62
2022/09/10 05:06:25;;;;;;;5.00;4.60;;;;;;;;;;1668041;29;21621;-62
2022/09/10 05:07:17;;;;;;;6.40;4.78;;;;;;;;;;1669252;29;21721;-62
2022/09/10 05:08:09;;;;;;;4.60;4.20;;;;;;;;;;1669228;29;21627;-63
2022/09/10 05:09:01;;;;;;;6.18;4.80;;;;;;;;;;1667700;29;22402;-63
2022/09/10 05:09:52;;;;;;;5.30;4.80;;;;;;;;;;1668486;29;22513;-64
2022/09/10 05:10:45;;;;;;;5.38;4.88;;;;;;;;;;1669124;29;21589;-64
2022/09/10 05:11:36;;;;;;;6.05;4.65;;;;;;;;;;1667546;29;22155;-63
2022/09/10 05:12:28;;;;;;;4.90;4.50;;;;;;;;;;1668287;29;22014;-64
2022/09/10 05:13:19;;;;;;;5.57;4.90;;;;;;;;;;1667350;29;21614;-63
2022/09/10 05:14:12;;;;;;;6.82;4.53;;;;;;;;;;1668396;29;23702;-64
2022/09/10 05:15:05;;;;;;;12.73;5.35;;;;;;;;;;1668355;29;22058;-63
2022/09/10 05:15:57;;;;;;;6.10;4.57;;;;;;;;;;1669294;29;21731;-63
2022/09/10 05:16:49;;;;;;;4.63;4.22;;;;;;;;;;1664851;29;21975;-63
2022/09/10 05:17:41;;;;;;;5.35;4.88;;;;;;;;;;1667625;29;21662;-63
2022/09/10 05:18:32;;;;;;;8.38;5.63;;;;;;;;;;1668881;29;21607;-64
2022/09/10 05:19:24;;;;;;;7.93;4.97;;;;;;;;;;1667661;29;21607;-63
2022/09/10 05:20:17;;;;;;;6.68;5.47;;;;;;;;;;1668014;29;21778;-63
2022/09/10 05:21:09;;;;;;;6.20;4.80;;;;;;;;;;1668915;29;21671;-64
2022/09/10 05:22:01;;;;;;;8.50;5.35;;;;;;;;;;1669117;29;21647;-63
2022/09/10 05:22:53;;;;;;;6.13;5.53;;;;;;;;;;1667240;29;21605;-63
2022/09/10 05:23:44;;;;;;;8.57;6.22;;;;;;;;;;1667846;29;21960;-63